createdAt,value
2022-09-23T00:14:41.011Z,1.70
2022-09-23T00:19:44.280Z,1.90
2022-09-23T00:24:48.743Z,1.60
2022-09-23T00:29:53.503Z,1.70
2022-09-23T00:34:56.520Z,1.50
2022-09-23T00:40:01.743Z,1.50
2022-09-23T00:45:07.888Z,1.50
2022-09-23T00:50:16.077Z,1.50
2022-09-23T00:55:25.302Z,1.60
2022-09-23T01:00:28.202Z,1.60
2022-09-23T01:05:31.265Z,1.70
2022-09-23T01:10:44.492Z,1.87
2022-09-23T01:15:51.551Z,2.10
2022-09-23T01:20:59.465Z,1.90
2022-09-23T01:26:21.373Z,1.53
2022-09-23T01:31:30.901Z,1.70
2022-09-23T01:36:39.420Z,1.83
2022-09-23T01:41:54.346Z,1.57
2022-09-23T01:47:02.949Z,1.60
2022-09-23T01:52:15.952Z,1.70
2022-09-23T01:57:25.005Z,1.70
2022-09-23T02:02:34.093Z,1.83
2022-09-23T02:07:44.325Z,1.90
2022-09-23T02:12:49.900Z,1.85
2022-09-23T02:18:00.215Z,1.77
2022-09-23T02:23:08.081Z,1.75
2022-09-23T02:28:16.143Z,1.85
2022-09-23T02:33:25.054Z,1.90
2022-09-23T02:38:35.775Z,1.90
2022-09-23T02:43:50.562Z,1.70
2022-09-23T02:49:02.440Z,1.87
2022-09-23T02:54:07.289Z,1.80
2022-09-23T02:59:11.272Z,1.98
2022-09-23T03:04:23.309Z,2.30
2022-09-23T03:09:31.338Z,2.40
2022-09-23T03:14:43.117Z,2.58
2022-09-23T03:19:51.843Z,2.40
2022-09-23T03:24:56.404Z,2.47
2022-09-23T03:30:00.641Z,2.45
2022-09-23T03:35:06.414Z,2.60
2022-09-23T03:40:13.961Z,2.40
2022-09-23T03:45:21.135Z,2.50
2022-09-23T03:50:25.791Z,2.60
2022-09-23T03:55:28.681Z,3.10
2022-09-23T04:00:31.656Z,2.90
2022-09-23T04:05:36.631Z,2.90
2022-09-23T04:10:42.720Z,2.72
2022-09-23T04:15:45.542Z,2.70
2022-09-23T04:20:49.849Z,2.65
2022-09-23T04:25:52.738Z,3.00
2022-09-23T04:30:57.804Z,2.90
2022-09-23T04:36:02.455Z,2.57
2022-09-23T04:41:05.808Z,2.70
2022-09-23T04:46:11.063Z,2.70
2022-09-23T04:51:18.384Z,2.80
2022-09-23T04:56:23.487Z,3.13
2022-09-23T05:01:28.747Z,3.10
2022-09-23T05:06:35.026Z,3.70
2022-09-23T05:11:37.898Z,3.10
2022-09-23T05:16:40.884Z,3.60
2022-09-23T05:21:45.336Z,2.93
2022-09-23T05:26:48.211Z,3.43
2022-09-23T05:31:53.252Z,3.72
2022-09-23T05:36:58.603Z,4.35
2022-09-23T05:42:01.785Z,3.63
2022-09-23T05:47:05.413Z,3.92
2022-09-23T05:52:09.955Z,2.97
2022-09-23T05:57:13.090Z,2.40
2022-09-23T06:02:16.574Z,2.70
2022-09-23T06:07:21.664Z,4.03
2022-09-23T06:12:25.188Z,2.80
2022-09-23T06:17:28.079Z,3.17
2022-09-23T06:22:36.734Z,3.78
2022-09-23T06:27:41.394Z,4.05
2022-09-23T06:32:49.939Z,4.13
2022-09-23T06:37:54.737Z,3.85
2022-09-23T06:43:06.482Z,3.60
2022-09-23T06:48:09.975Z,3.43
2022-09-23T06:53:14.396Z,3.30
2022-09-23T06:58:17.403Z,3.22
2022-09-23T07:03:20.725Z,3.00
2022-09-23T07:08:25.145Z,2.97
2022-09-23T07:13:29.406Z,3.10
2022-09-23T07:18:36.642Z,2.80
2022-09-23T07:23:41.437Z,3.17
2022-09-23T07:28:44.985Z,3.00
2022-09-23T07:33:48.316Z,3.20
2022-09-23T07:38:52.652Z,3.33
2022-09-23T07:43:59.073Z,2.50
2022-09-23T07:49:03.041Z,2.40
2022-09-23T07:54:10.734Z,2.73
2022-09-23T07:59:18.394Z,2.87
2022-09-23T08:04:26.055Z,2.97
2022-09-23T08:09:33.440Z,2.50
2022-09-23T08:14:36.976Z,2.50
2022-09-23T08:19:39.935Z,2.47
2022-09-23T08:24:44.696Z,2.80
2022-09-23T08:29:48.014Z,2.70
2022-09-23T08:34:50.868Z,2.67
2022-09-23T08:39:55.192Z,2.70
2022-09-23T08:45:02.889Z,2.37
2022-09-23T08:50:09.897Z,2.30
2022-09-23T08:55:16.102Z,2.25
2022-09-23T09:00:22.950Z,2.10
2022-09-23T09:05:31.288Z,2.10
2022-09-23T09:10:45.073Z,2.08
2022-09-23T09:15:57.418Z,2.13
2022-09-23T09:21:08.661Z,2.40
2022-09-23T09:26:21.527Z,1.90
2022-09-23T09:31:39.726Z,1.90
2022-09-23T09:36:49.197Z,1.80
2022-09-23T09:41:58.670Z,1.90
2022-09-23T09:47:17.507Z,1.90
2022-09-23T09:52:29.300Z,2.10
2022-09-23T09:57:40.648Z,1.90
2022-09-23T10:02:44.144Z,1.65
2022-09-23T10:07:48.790Z,1.60
2022-09-23T10:12:54.199Z,1.97
2022-09-23T10:17:57.400Z,1.70
2022-09-23T10:23:10.150Z,1.88
2022-09-23T10:28:43.396Z,2.07
2022-09-23T10:33:50.764Z,1.50
2022-09-23T10:39:23.949Z,1.88
2022-09-23T10:44:59.576Z,1.58
2022-09-23T10:50:32.623Z,1.50
2022-09-23T10:55:53.977Z,1.45
2022-09-23T11:01:40.031Z,1.40
2022-09-23T11:07:13.726Z,1.50
2022-09-23T11:12:37.434Z,1.30
2022-09-23T11:18:35.199Z,1.50
2022-09-23T11:24:08.505Z,1.10
2022-09-23T11:30:00.857Z,1.50
2022-09-23T11:35:20.902Z,1.20
2022-09-23T11:40:30.410Z,1.63
2022-09-23T11:45:38.322Z,1.40
2022-09-23T11:50:58.188Z,1.52
2022-09-23T11:56:07.251Z,1.50
2022-09-23T12:01:33.187Z,1.37
2022-09-23T12:06:50.218Z,1.50
2022-09-23T12:12:01.895Z,1.88
2022-09-23T12:17:31.521Z,1.70
2022-09-23T12:22:50.638Z,1.93
2022-09-23T12:27:55.682Z,1.60
2022-09-23T12:33:09.027Z,1.90
2022-09-23T12:38:20.827Z,1.90
2022-09-23T12:43:30.869Z,1.83
2022-09-23T12:49:02.824Z,1.70
2022-09-23T12:54:25.546Z,1.90
2022-09-23T12:59:31.300Z,1.80
2022-09-23T13:05:03.892Z,1.95
2022-09-23T13:10:17.135Z,1.70
2022-09-23T13:15:30.351Z,1.90
2022-09-23T13:20:41.749Z,1.88
2022-09-23T13:25:46.434Z,1.63
2022-09-23T13:30:52.131Z,1.60
2022-09-23T13:35:59.752Z,1.60
2022-09-23T13:41:08.264Z,1.60
2022-09-23T13:46:17.114Z,1.83
2022-09-23T13:51:25.054Z,1.70
2022-09-23T13:56:32.137Z,1.73
2022-09-23T14:01:43.186Z,1.60
2022-09-23T14:06:46.930Z,1.50
2022-09-23T14:11:56.136Z,1.80
2022-09-23T14:16:59.911Z,1.63
2022-09-23T14:22:02.812Z,1.60
2022-09-23T14:27:15.222Z,1.58
2022-09-23T14:32:22.657Z,1.60
2022-09-23T14:37:49.104Z,1.60
2022-09-23T14:43:04.610Z,1.70
2022-09-23T14:48:10.384Z,1.60
2022-09-23T14:53:35.090Z,1.60
2022-09-23T14:58:51.197Z,1.70
2022-09-23T15:03:59.895Z,1.50
2022-09-23T15:09:03.103Z,2.00
2022-09-23T15:14:33.581Z,1.43
2022-09-23T15:19:31.828Z,1.77
2022-09-23T15:24:43.304Z,1.80
2022-09-23T15:29:48.650Z,1.80
2022-09-23T15:34:52.031Z,1.90
2022-09-23T15:39:54.951Z,1.70
2022-09-23T15:45:01.016Z,1.80
2022-09-23T15:50:03.907Z,3.37
2022-09-23T15:55:16.191Z,2.00
2022-09-23T16:00:21.353Z,2.00
2022-09-23T16:05:30.735Z,1.70
2022-09-23T16:10:34.028Z,1.70
2022-09-23T16:15:39.157Z,1.80
2022-09-23T16:20:44.666Z,2.20
2022-09-23T16:25:50.312Z,2.90
2022-09-23T16:30:54.843Z,4.00
2022-09-23T16:36:01.001Z,6.63
2022-09-23T16:41:04.100Z,10.20
2022-09-23T16:46:12.897Z,21.50
2022-09-23T16:51:18.759Z,13.25
2022-09-23T16:56:28.199Z,4.10
2022-09-23T17:01:50.793Z,4.80
2022-09-23T17:06:55.126Z,6.53
2022-09-23T17:12:07.713Z,3.60
2022-09-23T17:17:12.186Z,5.03
2022-09-23T17:22:15.091Z,5.40
2022-09-23T17:27:18.118Z,4.43
2022-09-23T17:32:22.357Z,8.77
2022-09-23T17:37:25.317Z,6.90
2022-09-23T17:42:34.097Z,3.90
2022-09-23T17:47:41.409Z,2.90
2022-09-23T17:52:44.737Z,2.58
2022-09-23T17:57:52.814Z,2.28
2022-09-23T18:02:58.251Z,2.53
2022-09-23T18:08:05.359Z,2.40
2022-09-23T18:13:09.078Z,2.53
2022-09-23T18:18:13.405Z,2.53
2022-09-23T18:23:16.108Z,2.47
2022-09-23T18:28:18.821Z,2.85
2022-09-23T18:33:23.594Z,2.63
2022-09-23T18:38:26.369Z,3.20
2022-09-23T18:43:37.498Z,2.58
2022-09-23T18:49:01.884Z,2.50
2022-09-23T18:54:06.907Z,2.50
2022-09-23T18:59:12.460Z,2.85
2022-09-23T19:04:18.559Z,2.60
2022-09-23T19:09:21.527Z,4.00
2022-09-23T19:14:24.607Z,2.57
2022-09-23T19:19:30.092Z,2.40
2022-09-23T19:24:32.853Z,2.80
2022-09-23T19:29:35.699Z,2.70
2022-09-23T19:34:39.826Z,2.45
2022-09-23T19:39:42.524Z,2.50
2022-09-23T19:44:45.241Z,2.73
2022-09-23T19:49:49.653Z,2.70
2022-09-23T19:54:52.379Z,2.42
2022-09-23T19:59:55.092Z,2.83
2022-09-23T20:04:59.269Z,2.97
2022-09-23T20:10:02.081Z,2.90
2022-09-23T20:15:05.630Z,2.78
2022-09-23T20:20:11.805Z,2.70
2022-09-23T20:25:14.590Z,2.95
2022-09-23T20:30:17.979Z,3.00
2022-09-23T20:35:22.313Z,3.00
2022-09-23T20:40:25.101Z,3.10
2022-09-23T20:45:27.847Z,3.00
2022-09-23T20:50:31.940Z,2.90
2022-09-23T20:55:34.639Z,2.83
2022-09-23T21:00:37.427Z,3.00
2022-09-23T21:05:42.095Z,2.50
2022-09-23T21:10:45.768Z,2.60
2022-09-23T21:15:48.761Z,2.90
2022-09-23T21:20:56.692Z,2.60
2022-09-23T21:26:02.476Z,2.70
2022-09-23T21:31:07.659Z,2.80
2022-09-23T21:36:11.813Z,2.50
2022-09-23T21:41:14.700Z,2.33
2022-09-23T21:46:20.886Z,2.60
2022-09-23T21:51:26.818Z,2.80
2022-09-23T21:56:31.240Z,2.70
2022-09-23T22:01:36.236Z,2.87
2022-09-23T22:06:40.832Z,2.80
2022-09-23T22:12:01.413Z,2.60
2022-09-23T22:17:05.615Z,2.80
2022-09-23T22:22:13.255Z,2.65
2022-09-23T22:27:18.229Z,2.97
2022-09-23T22:32:54.467Z,3.00
2022-09-23T22:38:00.950Z,2.90
2022-09-23T22:43:03.660Z,2.83
2022-09-23T22:48:06.678Z,3.00
2022-09-23T22:53:11.078Z,2.67
2022-09-23T22:58:31.191Z,3.05
2022-09-23T23:03:35.524Z,2.50
2022-09-23T23:08:40.645Z,2.90
2022-09-23T23:13:43.771Z,2.80
2022-09-23T23:18:47.649Z,2.80
2022-09-23T23:23:53.657Z,3.07
2022-09-23T23:28:57.875Z,3.20
2022-09-23T23:34:00.619Z,3.20
2022-09-23T23:39:04.905Z,2.70
2022-09-23T23:44:08.247Z,2.90
2022-09-23T23:49:11.032Z,3.15
2022-09-23T23:54:15.619Z,2.80
2022-09-23T23:59:19.684Z,2.80
